Time;durP1;ratioP1;P1;durP2;ratioP2;P2;SDS_P1;SDS_P2;PMS_P1;PMS_P2;Temp;Humidity;BMP_temperature;BMP_pressure;BME280_temperature;BME280_humidity;BME280_pressure;Samples;Min_cycle;Max_cycle;Signal;HPM_P1;HPM_P2
2024/01/17 00:00:27;;;;;;;13.85;8.10;;;6.30;99.90;;;;;;6206536;23;20105;-74
2024/01/17 00:02:53;;;;;;;18.70;8.77;;;6.30;99.90;;;;;;6207192;23;20028;-76
2024/01/17 00:05:19;;;;;;;15.90;8.30;;;6.50;99.90;;;;;;6208548;23;20380;-73
2024/01/17 00:07:44;;;;;;;15.40;7.90;;;6.50;99.90;;;;;;6208255;23;20015;-72
2024/01/17 00:10:10;;;;;;;12.47;7.53;;;6.40;99.90;;;;;;6207996;23;20147;-76
2024/01/17 00:12:36;;;;;;;16.23;7.73;;;6.30;99.90;;;;;;6208182;23;20147;-70
2024/01/17 00:15:02;;;;;;;16.30;8.13;;;6.40;99.90;;;;;;6208404;23;20000;-75
2024/01/17 00:17:27;;;;;;;13.27;7.30;;;6.30;99.90;;;;;;6208036;23;20005;-76
2024/01/17 00:19:53;;;;;;;11.57;6.57;;;6.30;99.90;;;;;;6206730;23;20005;-76
2024/01/17 00:22:19;;;;;;;14.53;7.47;;;6.20;99.90;;;;;;6207837;23;20460;-70
2024/01/17 00:24:45;;;;;;;12.60;6.93;;;6.20;99.90;;;;;;6207322;23;20062;-74
2024/01/17 00:27:13;;;;;;;11.77;5.95;;;6.20;99.90;;;;;;6207475;23;20094;-73
2024/01/17 00:29:38;;;;;;;11.57;5.63;;;6.30;99.90;;;;;;6207330;23;20009;-74
2024/01/17 00:32:04;;;;;;;13.65;6.07;;;6.70;99.90;;;;;;6207483;23;20005;-75
2024/01/17 00:34:30;;;;;;;12.75;6.00;;;6.90;99.90;;;;;;6207688;23;20016;-73
2024/01/17 00:36:56;;;;;;;9.00;5.43;;;7.00;99.90;;;;;;6208068;23;20428;-77
2024/01/17 00:39:22;;;;;;;13.20;5.90;;;7.30;99.90;;;;;;6206881;23;20399;-76
2024/01/17 00:41:49;;;;;;;11.77;6.22;;;7.20;99.90;;;;;;6207481;23;20005;-78
2024/01/17 00:44:17;;;;;;;;;;;7.30;99.90;;;;;;6208236;23;20001;-76
2024/01/17 00:46:43;;;;;;;12.55;6.60;;;7.40;99.90;;;;;;6207200;23;20264;-75
2024/01/17 00:49:09;;;;;;;13.35;7.07;;;7.30;99.90;;;;;;6256962;22;20005;-74
2024/01/17 00:51:35;;;;;;;18.40;7.87;;;7.20;99.90;;;;;;6208296;23;20429;-77
2024/01/17 00:54:01;;;;;;;15.50;8.00;;;7.10;99.90;;;;;;6209261;23;20564;-73
2024/01/17 00:56:26;;;;;;;15.00;8.05;;;7.10;99.90;;;;;;6209567;23;20059;-70
2024/01/17 00:58:52;;;;;;;14.88;8.32;;;7.10;99.90;;;;;;6209220;23;20440;-72
2024/01/17 01:01:19;;;;;;;16.85;8.73;;;7.10;99.90;;;;;;6258538;22;20741;-67
2024/01/17 01:03:45;;;;;;;18.25;9.35;;;7.00;99.90;;;;;;6206844;23;20008;-70
2024/01/17 01:06:11;;;;;;;15.98;7.72;;;7.00;99.90;;;;;;6208595;23;20008;-70
2024/01/17 01:08:36;;;;;;;14.93;7.60;;;6.90;99.90;;;;;;6207788;23;20018;-72
2024/01/17 01:11:02;;;;;;;15.47;8.70;;;6.90;99.90;;;;;;6208672;23;20437;-69
2024/01/17 01:13:28;;;;;;;12.83;7.40;;;6.90;99.90;;;;;;6206910;23;20063;-74
2024/01/17 01:15:54;;;;;;;14.95;8.45;;;7.10;99.90;;;;;;6208463;22;20008;-83
2024/01/17 01:18:19;;;;;;;14.90;8.30;;;7.10;99.90;;;;;;6208071;23;19996;-82
2024/01/17 01:20:46;;;;;;;12.57;7.13;;;6.90;99.90;;;;;;6208192;23;20004;-80
2024/01/17 01:23:11;;;;;;;;;;;7.00;99.90;;;;;;6208715;23;20497;-81
2024/01/17 01:25:37;;;;;;;13.52;7.50;;;7.10;99.90;;;;;;6232122;23;20337;-80
2024/01/17 01:28:04;;;;;;;15.85;8.40;;;7.30;99.90;;;;;;6208718;23;20083;-66
2024/01/17 01:30:30;;;;;;;18.77;8.43;;;7.30;99.90;;;;;;6207978;23;20013;-66
2024/01/17 01:32:56;;;;;;;;;;;7.30;99.90;;;;;;6209068;23;20346;-69
2024/01/17 01:35:22;;;;;;;19.25;9.00;;;7.20;99.90;;;;;;6209143;23;20284;-73
2024/01/17 01:37:48;;;;;;;19.27;9.50;;;7.10;99.90;;;;;;6208501;23;20005;-73
2024/01/17 01:40:14;;;;;;;21.73;9.93;;;7.10;99.90;;;;;;6208159;23;20008;-72
2024/01/17 01:42:43;;;;;;;22.70;9.45;;;7.00;99.90;;;;;;6207463;23;20005;-74
2024/01/17 01:45:09;;;;;;;23.20;9.77;;;7.00;99.90;;;;;;6206922;23;20015;-70
2024/01/17 01:47:36;;;;;;;20.02;10.60;;;6.90;99.90;;;;;;6207163;23;20508;-66
2024/01/17 01:50:05;;;;;;;19.20;9.60;;;6.90;99.90;;;;;;6207773;23;20326;-75
2024/01/17 01:52:33;;;;;;;20.02;9.68;;;6.90;99.90;;;;;;6207535;23;20028;-68
2024/01/17 01:54:59;;;;;;;24.33;10.68;;;6.90;99.90;;;;;;6207103;23;20001;-75
2024/01/17 01:57:26;;;;;;;18.35;10.05;;;6.90;99.90;;;;;;6207798;23;20024;-77
2024/01/17 01:59:52;;;;;;;21.95;10.18;;;7.00;99.90;;;;;;6207443;23;20442;-70
2024/01/17 02:02:18;;;;;;;23.00;9.37;;;7.00;99.90;;;;;;6207744;23;20005;-70
2024/01/17 02:04:44;;;;;;;18.88;10.85;;;7.00;99.90;;;;;;6207386;23;20310;-71
2024/01/17 02:07:12;;;;;;;19.88;9.80;;;7.00;99.90;;;;;;6207463;23;20066;-76
2024/01/17 02:09:38;;;;;;;19.80;10.40;;;7.10;99.90;;;;;;6231518;23;20009;-69
2024/01/17 02:12:06;;;;;;;19.83;10.63;;;7.10;99.90;;;;;;6208055;23;20378;-75
2024/01/17 02:14:33;;;;;;;20.33;10.45;;;7.10;99.90;;;;;;6206462;23;19996;-77
2024/01/17 02:16:59;;;;;;;21.70;10.65;;;7.10;99.90;;;;;;6206835;23;20020;-77
2024/01/17 02:19:26;;;;;;;20.95;10.63;;;7.10;99.90;;;;;;6207651;23;20063;-79
2024/01/17 02:21:52;;;;;;;26.00;10.60;;;7.00;99.90;;;;;;6207341;23;20009;-76
2024/01/17 02:24:22;;;;;;;25.13;11.63;;;7.10;99.90;;;;;;6206259;23;20028;-76
2024/01/17 02:26:48;;;;;;;22.42;12.75;;;7.10;99.90;;;;;;6254751;22;20020;-72
2024/01/17 02:29:14;;;;;;;20.77;10.90;;;7.20;99.90;;;;;;6206894;23;20457;-77
2024/01/17 02:31:41;;;;;;;20.20;10.63;;;7.10;99.90;;;;;;6207583;23;20048;-77
2024/01/17 02:34:07;;;;;;;20.77;10.30;;;7.20;99.90;;;;;;6208141;23;20780;-74
2024/01/17 02:36:33;;;;;;;21.25;11.40;;;7.20;99.90;;;;;;6206945;23;20004;-74
2024/01/17 02:38:58;;;;;;;23.20;10.23;;;7.30;99.90;;;;;;6205406;23;20036;-73
2024/01/17 02:41:24;;;;;;;23.87;10.63;;;7.30;99.90;;;;;;6207446;23;20430;-69
2024/01/17 02:43:50;;;;;;;24.87;11.13;;;7.30;99.90;;;;;;6206493;23;20016;-75
2024/01/17 02:46:16;;;;;;;20.08;10.80;;;7.20;99.90;;;;;;6205261;23;20400;-73
2024/01/17 02:48:42;;;;;;;22.48;11.85;;;7.20;99.90;;;;;;6205573;23;20461;-73
2024/01/17 02:51:08;;;;;;;21.92;10.55;;;7.30;99.90;;;;;;6207336;23;20015;-73
2024/01/17 02:53:34;;;;;;;22.23;11.35;;;7.30;99.90;;;;;;6206833;23;20004;-74
2024/01/17 02:55:59;;;;;;;20.73;10.20;;;7.40;99.90;;;;;;6207198;23;20040;-70
2024/01/17 02:58:28;;;;;;;18.57;10.27;;;7.40;99.90;;;;;;6207080;23;20000;-76
2024/01/17 03:00:54;;;;;;;19.80;9.52;;;7.50;99.90;;;;;;6207331;23;20079;-75
2024/01/17 03:03:20;;;;;;;19.27;10.18;;;7.60;99.90;;;;;;6207229;23;20005;-72
2024/01/17 03:05:46;;;;;;;19.23;9.70;;;7.50;99.90;;;;;;6206497;23;20441;-76
2024/01/17 03:08:11;;;;;;;18.45;10.23;;;7.60;99.90;;;;;;6206382;23;20098;-67
2024/01/17 03:10:37;;;;;;;14.57;7.83;;;7.70;99.90;;;;;;6207179;23;20055;-73
2024/01/17 03:13:02;;;;;;;17.43;9.00;;;7.90;99.90;;;;;;6208021;23;20016;-67
2024/01/17 03:15:28;;;;;;;19.60;8.83;;;8.00;99.90;;;;;;6207782;23;20005;-69
2024/01/17 03:17:55;;;;;;;17.17;9.25;;;8.10;99.90;;;;;;6258788;22;20009;-71
2024/01/17 03:20:21;;;;;;;14.20;7.45;;;8.20;99.90;;;;;;6209368;23;20353;-72
2024/01/17 03:22:47;;;;;;;12.70;6.95;;;8.30;99.90;;;;;;6208776;23;20005;-72
2024/01/17 03:25:15;;;;;;;11.10;6.03;;;8.40;99.90;;;;;;6206700;23;20353;-68
2024/01/17 03:27:41;;;;;;;12.35;6.18;;;8.40;99.90;;;;;;6207904;23;20743;-75
2024/01/17 03:30:08;;;;;;;9.27;5.65;;;8.50;99.90;;;;;;6207826;23;20009;-72
2024/01/17 03:32:34;;;;;;;11.45;5.63;;;8.50;99.90;;;;;;6208406;23;20079;-79
2024/01/17 03:35:00;;;;;;;14.67;5.67;;;8.70;99.90;;;;;;6208097;23;20054;-78
2024/01/17 03:37:25;;;;;;;15.15;6.82;;;8.70;99.90;;;;;;6207630;23;20243;-71
2024/01/17 03:39:51;;;;;;;10.90;5.60;;;8.60;99.90;;;;;;6207475;23;20004;-73
2024/01/17 03:42:17;;;;;;;12.10;5.67;;;8.60;99.90;;;;;;6207725;23;20000;-69
2024/01/17 03:44:46;;;;;;;13.52;5.50;;;8.70;99.90;;;;;;6207820;23;19997;-75
2024/01/17 03:47:12;;;;;;;11.23;4.82;;;8.70;99.90;;;;;;6228838;23;20361;-68
2024/01/17 03:49:38;;;;;;;9.30;5.03;;;8.80;99.90;;;;;;6256374;22;20100;-75
2024/01/17 03:52:06;;;;;;;11.68;4.22;;;8.70;99.90;;;;;;6208164;23;20039;-75
2024/01/17 03:54:31;;;;;;;13.82;5.18;;;9.00;99.90;;;;;;6207873;23;20001;-77
2024/01/17 03:56:57;;;;;;;7.77;4.73;;;8.90;99.90;;;;;;6206440;23;20046;-67
2024/01/17 03:59:23;;;;;;;9.27;4.82;;;8.90;99.90;;;;;;6255757;22;20452;-71
2024/01/17 04:01:49;;;;;;;8.65;3.95;;;8.90;99.90;;;;;;6206065;23;20048;-71
2024/01/17 04:04:15;;;;;;;8.40;4.40;;;9.10;99.90;;;;;;6206072;23;20008;-69
2024/01/17 04:06:40;;;;;;;10.98;3.70;;;9.10;99.90;;;;;;6207021;23;20040;-73
2024/01/17 04:09:06;;;;;;;6.53;3.60;;;9.10;99.90;;;;;;6207373;23;20009;-76
2024/01/17 04:11:32;;;;;;;9.05;5.15;;;9.10;99.90;;;;;;6206931;23;20407;-75
2024/01/17 04:13:58;;;;;;;8.00;3.90;;;9.20;99.90;;;;;;6229605;23;20028;-71
2024/01/17 04:16:23;;;;;;;7.00;3.63;;;9.20;99.90;;;;;;6206574;23;20000;-77
2024/01/17 04:18:49;;;;;;;9.03;4.33;;;9.30;99.90;;;;;;6205248;23;20008;-72
2024/01/17 04:21:18;;;;;;;7.20;4.30;;;9.20;99.90;;;;;;6206375;23;19997;-75
2024/01/17 04:23:45;;;;;;;5.43;3.55;;;9.10;99.90;;;;;;6205233;23;20005;-76
2024/01/17 04:26:24;;;;;;;5.85;3.50;;;9.10;99.90;;;;;;6206830;23;20008;-78
2024/01/17 04:28:51;;;;;;;8.15;4.10;;;9.20;99.90;;;;;;6207453;23;20012;-77
2024/01/17 04:31:24;;;;;;;;;;;9.00;99.90;;;;;;6208936;23;20019;-74
2024/01/17 04:33:50;;;;;;;9.13;4.35;;;8.90;99.90;;;;;;6208912;23;19934;-79
2024/01/17 04:36:18;;;;;;;10.80;4.68;;;9.00;99.90;;;;;;6208729;23;20031;-78
2024/01/17 04:38:44;;;;;;;8.13;4.53;;;8.90;99.90;;;;;;6207511;23;20063;-79
2024/01/17 04:41:14;;;;;;;10.15;5.03;;;8.80;99.90;;;;;;6208314;23;20008;-75
2024/01/17 04:43:44;;;;;;;6.85;4.53;;;8.90;99.90;;;;;;6208270;23;20341;-72
2024/01/17 04:46:15;;;;;;;8.60;4.60;;;8.80;99.90;;;;;;6208477;23;20013;-70
2024/01/17 04:48:42;;;;;;;13.43;4.90;;;8.70;99.90;;;;;;6208921;23;20004;-70
2024/01/17 04:51:09;;;;;;;9.85;4.95;;;8.70;99.90;;;;;;6208148;23;20066;-73
2024/01/17 04:53:42;;;;;;;9.68;4.50;;;8.80;99.90;;;;;;6209457;23;20004;-66
2024/01/17 04:56:13;;;;;;;8.38;4.80;;;8.80;99.90;;;;;;6206705;23;20062;-67
2024/01/17 04:58:39;;;;;;;10.02;3.88;;;8.70;99.90;;;;;;6207179;23;20008;-67
2024/01/17 05:01:05;;;;;;;6.22;3.67;;;8.70;99.90;;;;;;6208554;23;20456;-76
2024/01/17 05:03:32;;;;;;;6.25;3.72;;;8.70;99.90;;;;;;6208571;23;20004;-78
2024/01/17 05:05:59;;;;;;;9.65;5.25;;;8.70;99.90;;;;;;6207224;23;20087;-77
2024/01/17 05:08:24;;;;;;;;;;;8.70;99.90;;;;;;6207974;23;20111;-73
2024/01/17 05:10:50;;;;;;;12.85;4.63;;;8.70;99.90;;;;;;6207836;23;20395;-79
2024/01/17 05:13:16;;;;;;;8.57;4.27;;;8.70;99.90;;;;;;6207769;23;20007;-78
2024/01/17 05:15:42;;;;;;;8.43;4.43;;;8.60;99.90;;;;;;6207135;23;20008;-74
2024/01/17 05:18:11;;;;;;;11.07;4.70;;;8.70;99.90;;;;;;6207569;23;20008;-77
2024/01/17 05:20:38;;;;;;;12.85;4.63;;;8.70;99.90;;;;;;6208178;23;19996;-75
2024/01/17 05:23:04;;;;;;;9.15;4.88;;;8.60;99.90;;;;;;6207751;23;20095;-73
2024/01/17 05:25:30;;;;;;;9.75;4.13;;;8.60;99.90;;;;;;6256615;22;20090;-74
2024/01/17 05:27:55;;;;;;;9.07;4.20;;;8.60;99.90;;;;;;6205594;23;20469;-75
2024/01/17 05:30:25;;;;;;;9.50;3.90;;;8.60;99.90;;;;;;6207273;23;20789;-76
2024/01/17 05:32:52;;;;;;;7.78;3.95;;;8.70;99.90;;;;;;6207351;23;20008;-75
2024/01/17 05:35:19;;;;;;;7.30;4.18;;;8.60;99.90;;;;;;6207562;23;20445;-74
2024/01/17 05:37:45;;;;;;;6.80;3.95;;;8.60;99.90;;;;;;6207228;23;20015;-77
2024/01/17 05:40:11;;;;;;;;;;;8.70;99.90;;;;;;6207715;23;20051;-74
2024/01/17 05:42:38;;;;;;;8.70;3.42;;;8.70;99.90;;;;;;6207527;23;19903;-74
2024/01/17 05:45:04;;;;;;;;;;;8.70;99.90;;;;;;6208457;23;20011;-80
2024/01/17 05:47:30;;;;;;;8.35;3.90;;;8.70;99.90;;;;;;6206922;23;19995;-73
2024/01/17 05:49:58;;;;;;;12.65;4.65;;;8.60;99.90;;;;;;6206845;23;20004;-73
2024/01/17 05:52:24;;;;;;;9.93;4.43;;;8.70;99.90;;;;;;6205897;23;20005;-80
2024/01/17 05:54:50;;;;;;;6.33;3.37;;;8.70;99.90;;;;;;6206493;23;20051;-74
2024/01/17 05:57:15;;;;;;;8.80;4.07;;;8.60;99.90;;;;;;6207316;23;20404;-76
2024/01/17 05:59:42;;;;;;;12.40;4.60;;;8.70;99.90;;;;;;6207490;23;20004;-74
2024/01/17 06:02:07;;;;;;;8.52;4.38;;;8.80;99.90;;;;;;6207613;23;20244;-74
2024/01/17 06:04:33;;;;;;;7.73;4.57;;;8.70;99.90;;;;;;6208417;23;20389;-66
2024/01/17 06:06:59;;;;;;;8.73;4.63;;;8.80;99.90;;;;;;6256175;22;20023;-66
2024/01/17 06:09:25;;;;;;;7.80;4.38;;;8.70;99.90;;;;;;6207512;23;20005;-70
2024/01/17 06:11:51;;;;;;;7.87;4.30;;;8.90;99.90;;;;;;6207752;23;20015;-72
2024/01/17 06:14:16;;;;;;;6.77;4.37;;;9.00;99.90;;;;;;6256693;22;20346;-68
2024/01/17 06:16:42;;;;;;;7.73;4.57;;;9.00;99.90;;;;;;6207369;23;20004;-70
2024/01/17 06:19:07;;;;;;;8.70;4.17;;;9.00;99.90;;;;;;6207394;23;20023;-71
2024/01/17 06:21:33;;;;;;;6.80;4.50;;;8.90;99.90;;;;;;6208026;23;20012;-78
2024/01/17 06:23:59;;;;;;;7.00;4.53;;;8.90;99.90;;;;;;6206395;23;20070;-69
2024/01/17 06:26:24;;;;;;;8.83;4.77;;;8.90;99.90;;;;;;6206978;23;20107;-68
2024/01/17 06:28:50;;;;;;;7.90;4.53;;;8.80;99.90;;;;;;6206883;23;20008;-75
2024/01/17 06:31:24;;;;;;;9.73;4.57;;;8.70;99.90;;;;;;6207091;23;20040;-70
2024/01/17 06:33:53;;;;;;;8.50;4.95;;;8.80;99.90;;;;;;6206578;23;20028;-66
2024/01/17 06:36:18;;;;;;;9.85;5.00;;;8.80;99.90;;;;;;6207839;23;20083;-66
2024/01/17 06:38:45;;;;;;;9.10;4.50;;;8.90;99.90;;;;;;6207879;23;20020;-67
2024/01/17 06:41:10;;;;;;;10.00;4.65;;;8.80;99.90;;;;;;6207823;23;20005;-77
2024/01/17 06:43:36;;;;;;;10.13;4.90;;;8.80;99.90;;;;;;6207734;23;20007;-77
2024/01/17 06:46:03;;;;;;;8.50;4.57;;;8.80;99.90;;;;;;6230684;23;20019;-78
2024/01/17 06:48:29;;;;;;;7.47;5.03;;;9.00;99.90;;;;;;6206971;23;20083;-77
2024/01/17 06:50:55;;;;;;;7.43;4.55;;;8.90;99.90;;;;;;6206060;23;20004;-76
2024/01/17 06:53:22;;;;;;;7.47;4.23;;;8.90;99.90;;;;;;6207346;23;20039;-70
2024/01/17 06:55:50;;;;;;;;;;;8.90;99.90;;;;;;6206817;23;20348;-75
2024/01/17 06:58:16;;;;;;;8.05;4.95;;;8.80;99.90;;;;;;6206829;23;19904;-74
2024/01/17 07:00:43;;;;;;;12.23;4.53;;;8.80;99.90;;;;;;6206646;23;20078;-76
2024/01/17 07:03:09;;;;;;;8.68;4.90;;;8.80;99.90;;;;;;6206615;23;20349;-73
2024/01/17 07:05:34;;;;;;;7.80;4.73;;;8.70;99.90;;;;;;6206933;23;20054;-81
2024/01/17 07:08:00;;;;;;;8.33;4.83;;;8.70;99.90;;;;;;6205686;23;20028;-78
2024/01/17 07:10:25;;;;;;;7.87;5.20;;;8.80;99.90;;;;;;6206546;23;20005;-72
2024/01/17 07:12:51;;;;;;;10.87;4.60;;;8.80;99.90;;;;;;6205438;22;20023;-79
2024/01/17 07:15:17;;;;;;;7.17;4.73;;;8.80;99.90;;;;;;6205683;23;20005;-74
2024/01/17 07:17:43;;;;;;;8.23;4.53;;;8.80;99.90;;;;;;6205106;23;20006;-80
2024/01/17 07:20:12;;;;;;;7.10;4.63;;;8.90;99.90;;;;;;6206165;23;20009;-84
2024/01/17 07:22:41;;;;;;;6.45;3.78;;;9.00;99.90;;;;;;6204921;23;20074;-84
2024/01/17 07:25:10;;;;;;;6.88;4.03;;;9.10;99.90;;;;;;6206116;23;20000;-85
2024/01/17 07:27:39;;;;;;;6.93;4.43;;;9.00;99.90;;;;;;6207027;23;20050;-72
2024/01/17 07:30:05;;;;;;;5.65;4.13;;;9.00;99.90;;;;;;6206160;23;20020;-77
2024/01/17 07:32:31;;;;;;;7.68;4.10;;;8.90;99.90;;;;;;6229777;23;20016;-79
2024/01/17 07:34:57;;;;;;;8.25;3.92;;;8.90;99.90;;;;;;6206806;22;20005;-80
2024/01/17 07:37:22;;;;;;;7.90;4.30;;;8.90;99.90;;;;;;6207218;23;20004;-77
2024/01/17 07:39:48;;;;;;;8.27;4.30;;;9.00;99.90;;;;;;6255554;22;20646;-72
2024/01/17 07:42:14;;;;;;;8.33;4.03;;;9.00;99.90;;;;;;6206325;23;20012;-71
2024/01/17 07:44:40;;;;;;;7.13;4.18;;;9.10;99.90;;;;;;6205007;23;20009;-72
2024/01/17 07:47:05;;;;;;;8.10;4.10;;;9.10;99.90;;;;;;6206319;23;20017;-77
2024/01/17 07:49:39;;;;;;;8.90;3.87;;;9.10;99.90;;;;;;6206704;23;19996;-70
2024/01/17 07:52:05;;;;;;;7.78;3.45;;;9.20;99.90;;;;;;6206985;23;20503;-76
2024/01/17 07:54:32;;;;;;;5.70;3.55;;;9.20;99.90;;;;;;6206881;23;20437;-77
2024/01/17 07:56:58;;;;;;;6.05;3.25;;;9.30;99.90;;;;;;6206312;23;20445;-76
2024/01/17 07:59:24;;;;;;;6.10;3.38;;;9.40;99.90;;;;;;6206941;23;19996;-70
2024/01/17 08:01:50;;;;;;;4.95;2.95;;;9.40;99.90;;;;;;6206426;23;20012;-69
2024/01/17 08:04:19;;;;;;;9.30;3.87;;;9.40;99.90;;;;;;6208765;23;20019;-69
2024/01/17 08:06:44;;;;;;;6.85;3.10;;;9.40;99.90;;;;;;6207962;23;20021;-71
2024/01/17 08:09:24;;;;;;;23.90;3.00;;;9.40;99.90;;;;;;6208084;23;20043;-73
2024/01/17 08:11:54;;;;;;;11.65;3.00;;;9.50;99.90;;;;;;6208080;23;20713;-70
2024/01/17 08:14:20;;;;;;;5.00;2.65;;;9.60;99.90;;;;;;6208792;23;19997;-68
2024/01/17 08:16:47;;;;;;;5.63;2.80;;;9.70;99.90;;;;;;6231451;23;20012;-76
2024/01/17 08:19:14;;;;;;;5.60;2.75;;;9.70;99.90;;;;;;6209913;23;20004;-79
2024/01/17 08:21:42;;;;;;;;;;;9.70;99.90;;;;;;6210590;23;20004;-75
2024/01/17 08:24:09;;;;;;;118.80;9.13;;;9.80;99.90;;;;;;6209206;23;19971;-78
2024/01/17 08:26:35;;;;;;;5.50;2.70;;;9.80;99.90;;;;;;6210072;23;20065;-80
2024/01/17 08:29:00;;;;;;;4.57;2.30;;;9.80;99.90;;;;;;6208540;23;20020;-80
2024/01/17 08:31:27;;;;;;;3.10;2.55;;;9.90;99.90;;;;;;6208125;23;20095;-64
2024/01/17 08:33:52;;;;;;;3.78;2.58;;;9.90;99.90;;;;;;6208251;23;20000;-77
2024/01/17 08:36:18;;;;;;;3.63;2.90;;;10.10;99.90;;;;;;6209047;23;20008;-70
2024/01/17 08:38:43;;;;;;;7.63;2.50;;;10.00;99.90;;;;;;6208100;23;20076;-75
2024/01/17 08:41:10;;;;;;;5.30;2.67;;;9.90;99.90;;;;;;6208755;23;20033;-73
2024/01/17 08:43:36;;;;;;;4.47;2.63;;;10.00;99.90;;;;;;6208968;23;20039;-74
2024/01/17 08:46:02;;;;;;;5.72;2.38;;;10.10;99.90;;;;;;6206829;23;20008;-73
2024/01/17 08:48:28;;;;;;;3.80;2.45;;;10.10;99.90;;;;;;6207869;23;20020;-78
2024/01/17 08:50:55;;;;;;;5.47;2.88;;;10.20;99.90;;;;;;6206249;23;20005;-76
2024/01/17 08:53:21;;;;;;;;;;;10.20;99.90;;;;;;6207544;23;20008;-79
2024/01/17 08:55:47;;;;;;;5.93;2.40;;;10.20;99.90;;;;;;6206428;23;19957;-80
2024/01/17 08:58:13;;;;;;;;;;;10.30;99.90;;;;;;6206216;23;20004;-78
2024/01/17 09:00:38;;;;;;;3.90;2.45;;;10.30;99.90;;;;;;6205621;23;19906;-78
2024/01/17 09:03:04;;;;;;;4.17;2.60;;;10.30;99.90;;;;;;6231841;23;20341;-74
2024/01/17 09:05:31;;;;;;;3.25;1.85;;;10.30;99.90;;;;;;6208576;23;20042;-72
2024/01/17 09:07:57;;;;;;;5.53;2.70;;;10.40;99.90;;;;;;6207155;23;20016;-73
2024/01/17 09:10:23;;;;;;;5.13;2.78;;;10.40;99.90;;;;;;6208314;23;20464;-73
2024/01/17 09:12:52;;;;;;;4.13;2.42;;;10.40;99.90;;;;;;6208039;23;20009;-77
2024/01/17 09:15:17;;;;;;;4.82;2.85;;;10.40;99.90;;;;;;6207363;23;20091;-79
2024/01/17 09:17:43;;;;;;;4.70;2.40;;;10.40;99.90;;;;;;6209198;23;20094;-76
2024/01/17 09:20:10;;;;;;;4.10;2.58;;;10.40;99.90;;;;;;6208715;23;20035;-73
2024/01/17 09:22:35;;;;;;;8.23;3.45;;;10.40;99.90;;;;;;6209833;23;20052;-72
2024/01/17 09:25:01;;;;;;;5.85;2.63;;;10.40;99.90;;;;;;6207872;23;20000;-74
2024/01/17 09:27:28;;;;;;;4.30;2.40;;;10.40;99.90;;;;;;6208368;23;20386;-72
2024/01/17 09:29:53;;;;;;;;;;;10.40;99.90;;;;;;6205686;23;20009;-75
2024/01/17 09:32:19;;;;;;;5.93;2.05;;;10.40;99.90;;;;;;6207500;23;19904;-71
2024/01/17 09:34:47;;;;;;;4.50;2.47;;;10.50;99.90;;;;;;6207296;23;20005;-67
2024/01/17 09:37:14;;;;;;;4.78;2.50;;;10.50;99.90;;;;;;6209264;23;20050;-70
2024/01/17 09:39:39;;;;;;;;;;;10.50;99.90;;;;;;6210046;23;20005;-69
2024/01/17 09:42:06;;;;;;;5.07;2.50;;;10.60;99.90;;;;;;6207492;23;20195;-67
2024/01/17 09:44:32;;;;;;;2.63;2.22;;;10.60;99.90;;;;;;6208817;23;20035;-67
2024/01/17 09:47:01;;;;;;;5.22;2.50;;;10.60;99.90;;;;;;6206864;23;20059;-66
2024/01/17 09:49:27;;;;;;;4.32;2.53;;;10.60;99.90;;;;;;6207968;23;20384;-68
2024/01/17 09:51:54;;;;;;;3.35;2.50;;;10.70;99.90;;;;;;6207722;23;20005;-66
2024/01/17 09:54:26;;;;;;;3.95;2.40;;;10.60;99.90;;;;;;6208513;23;20020;-68
2024/01/17 09:56:55;;;;;;;6.68;2.63;;;10.60;99.90;;;;;;6208824;23;20004;-68
2024/01/17 09:59:27;;;;;;;4.95;2.78;;;10.70;99.90;;;;;;6257209;22;20203;-73
2024/01/17 10:01:54;;;;;;;5.28;2.63;;;10.80;99.90;;;;;;6207226;23;20009;-74
2024/01/17 10:04:23;;;;;;;4.53;2.70;;;10.90;99.90;;;;;;6208016;23;20008;-76
2024/01/17 10:06:49;;;;;;;6.88;3.00;;;11.20;99.90;;;;;;6256448;22;20043;-75
2024/01/17 10:09:15;;;;;;;4.10;2.65;;;11.40;99.90;;;;;;6207505;23;20016;-72
2024/01/17 10:11:41;;;;;;;6.10;2.70;;;11.50;99.90;;;;;;6206278;23;20005;-71
2024/01/17 10:14:10;;;;;;;7.32;2.60;;;11.60;99.90;;;;;;6205313;23;20055;-80
2024/01/17 10:16:36;;;;;;;6.25;3.00;;;11.70;99.90;;;;;;6205639;23;20000;-74
2024/01/17 10:19:04;;;;;;;4.27;3.00;;;11.70;99.90;;;;;;6208022;23;20087;-71
2024/01/17 10:21:33;;;;;;;5.82;2.78;;;11.90;99.90;;;;;;6207554;23;20549;-74
2024/01/17 10:23:59;;;;;;;4.57;2.72;;;12.00;99.90;;;;;;6204921;23;20075;-67
2024/01/17 10:26:25;;;;;;;3.60;2.50;;;12.10;99.90;;;;;;6207271;23;20379;-70
2024/01/17 10:28:51;;;;;;;3.97;2.78;;;12.20;99.90;;;;;;6207169;23;20075;-73
2024/01/17 10:31:20;;;;;;;5.32;2.90;;;12.30;99.90;;;;;;6256440;22;20100;-69
2024/01/17 10:33:50;;;;;;;6.70;2.90;;;12.40;99.90;;;;;;6207499;23;20470;-73
2024/01/17 10:36:16;;;;;;;5.88;3.20;;;12.40;99.90;;;;;;6207851;23;20059;-72
2024/01/17 10:38:42;;;;;;;5.10;2.53;;;12.30;99.90;;;;;;6207217;23;20385;-70
2024/01/17 10:41:09;;;;;;;5.70;2.85;;;12.30;99.90;;;;;;6207190;23;20063;-71
2024/01/17 10:43:55;;;;;;;7.13;3.17;;;12.30;99.90;;;;;;6207417;23;20008;-69
2024/01/17 10:46:22;;;;;;;10.80;3.47;;;12.50;99.90;;;;;;6206846;23;20404;-72
2024/01/17 10:48:48;;;;;;;5.65;3.10;;;12.60;99.90;;;;;;6206850;23;20475;-73
2024/01/17 10:51:24;;;;;;;8.43;3.20;;;12.80;99.90;;;;;;6207030;23;20079;-72
2024/01/17 10:53:52;;;;;;;5.82;2.40;;;12.90;99.90;;;;;;6207148;23;20008;-72
2024/01/17 10:56:19;;;;;;;9.07;2.60;;;12.90;99.90;;;;;;6206641;23;20701;-74
2024/01/17 10:58:51;;;;;;;8.40;2.72;;;12.90;99.90;;;;;;6206529;23;20092;-72
2024/01/17 11:01:25;;;;;;;6.78;2.80;;;12.80;99.90;;;;;;6207258;23;20319;-74
2024/01/17 11:03:54;;;;;;;6.28;3.67;;;12.80;99.90;;;;;;6207222;23;20019;-77
2024/01/17 11:06:21;;;;;;;6.82;2.90;;;12.70;99.90;;;;;;6207168;23;20004;-78
2024/01/17 11:08:47;;;;;;;5.45;3.03;;;12.60;99.90;;;;;;6207584;23;20039;-74
2024/01/17 11:11:16;;;;;;;5.70;2.88;;;12.60;99.90;;;;;;6207187;23;20001;-74
2024/01/17 11:13:44;;;;;;;9.70;2.63;;;12.60;99.90;;;;;;6207020;23;20008;-70
2024/01/17 11:16:13;;;;;;;6.13;3.25;;;12.50;99.90;;;;;;6255555;22;20047;-70
2024/01/17 11:18:40;;;;;;;5.72;2.97;;;12.40;99.90;;;;;;6206472;23;20556;-75
2024/01/17 11:21:07;;;;;;;7.60;2.67;;;12.30;99.90;;;;;;6206264;23;20009;-72
2024/01/17 11:24:14;;;;;;;8.75;2.97;;;12.30;99.90;;;;;;6206335;23;20005;-71
2024/01/17 11:26:50;;;;;;;5.55;3.88;;;12.20;99.90;;;;;;6206003;23;20012;-72
2024/01/17 11:29:38;;;;;;;7.43;2.80;;;12.20;99.90;;;;;;6205711;23;20031;-71
2024/01/17 11:32:32;;;;;;;7.10;3.10;;;12.10;99.90;;;;;;6207732;23;20412;-71
2024/01/17 11:34:58;;;;;;;9.43;2.55;;;12.10;99.90;;;;;;6207307;23;20009;-72
2024/01/17 11:37:31;;;;;;;6.87;2.90;;;12.00;99.90;;;;;;6205728;23;20040;-72
2024/01/17 11:39:57;;;;;;;7.47;3.45;;;12.00;99.90;;;;;;6206580;23;20016;-79
2024/01/17 11:42:24;;;;;;;4.15;2.47;;;11.90;99.90;;;;;;6205375;23;20005;-74
2024/01/17 11:44:51;;;;;;;5.35;2.88;;;11.90;99.90;;;;;;6254704;22;20422;-74
2024/01/17 11:47:20;;;;;;;3.50;2.58;;;11.90;99.90;;;;;;6205286;23;20013;-71
2024/01/17 11:49:46;;;;;;;4.85;2.63;;;11.80;99.90;;;;;;6205564;23;20080;-74
2024/01/17 11:52:31;;;;;;;7.72;2.97;;;11.80;99.90;;;;;;6199979;22;20016;-71
2024/01/17 11:54:57;;;;;;;3.42;2.10;;;11.80;99.90;;;;;;6205692;23;20013;-74
2024/01/17 11:57:26;;;;;;;7.73;2.97;;;11.80;99.90;;;;;;6205229;23;20004;-74
2024/01/17 12:00:27;;;;;;;4.85;2.92;;;11.80;99.90;;;;;;6205847;23;20230;-73
2024/01/17 12:02:54;;;;;;;9.75;2.80;;;11.80;99.90;;;;;;6172357;23;20013;-76
2024/01/17 12:05:20;;;;;;;8.18;2.30;;;11.80;99.90;;;;;;6198993;23;20009;-77
2024/01/17 12:07:49;;;;;;;6.70;2.95;;;11.80;99.90;;;;;;6204473;23;20020;-76
2024/01/17 12:10:15;;;;;;;3.47;2.40;;;11.90;99.90;;;;;;6205435;23;20005;-76
2024/01/17 12:12:42;;;;;;;8.48;2.78;;;11.90;99.90;;;;;;6205504;23;20015;-77
2024/01/17 12:15:12;;;;;;;6.60;2.75;;;12.00;99.90;;;;;;6205589;23;20399;-77
2024/01/17 12:17:39;;;;;;;5.80;2.95;;;11.90;99.90;;;;;;6206907;23;20091;-76
2024/01/17 12:20:07;;;;;;;9.77;3.15;;;11.90;99.90;;;;;;6206454;23;20071;-75
2024/01/17 12:22:33;;;;;;;14.40;3.60;;;11.80;99.90;;;;;;6205183;23;20032;-77
2024/01/17 12:24:59;;;;;;;8.02;3.45;;;11.80;99.90;;;;;;6205238;23;20035;-74
2024/01/17 12:27:26;;;;;;;5.35;2.90;;;11.80;99.90;;;;;;6205215;23;20411;-73
2024/01/17 12:29:54;;;;;;;8.23;2.63;;;11.80;99.90;;;;;;6205948;23;20014;-74
2024/01/17 12:32:23;;;;;;;8.88;3.33;;;11.80;99.90;;;;;;6204815;23;20525;-71
2024/01/17 12:34:49;;;;;;;7.50;2.80;;;11.80;99.90;;;;;;6205509;23;20011;-72
2024/01/17 12:37:15;;;;;;;4.90;2.97;;;11.80;99.90;;;;;;6205339;23;20039;-70
2024/01/17 12:39:41;;;;;;;6.82;3.28;;;11.90;99.90;;;;;;6205635;23;20005;-71
2024/01/17 12:42:07;;;;;;;8.43;3.37;;;11.90;99.90;;;;;;6205706;23;20012;-72
2024/01/17 12:44:33;;;;;;;7.78;3.85;;;11.80;99.90;;;;;;6205943;23;20012;-76
2024/01/17 12:46:59;;;;;;;8.95;3.22;;;11.80;99.90;;;;;;6205790;23;20024;-71
2024/01/17 12:49:27;;;;;;;5.78;2.75;;;11.80;99.90;;;;;;6207523;23;20000;-72
2024/01/17 12:51:54;;;;;;;7.20;2.53;;;11.70;99.90;;;;;;6207141;23;20008;-70